Time;durP1;ratioP1;P1;durP2;ratioP2;P2;SDS_P1;SDS_P2;PMS_P1;PMS_P2;Temp;Humidity;BMP_temperature;BMP_pressure;BME280_temperature;BME280_humidity;BME280_pressure;Samples;Min_cycle;Max_cycle;Signal;HPM_P1;HPM_P2
2022/08/07 00:01:25;;;;;;;;;;;27.00;99.90;;;;;;5061041;28;19920;-76
2022/08/07 00:03:50;;;;;;;;;;;27.00;99.90;;;;;;5082240;28;19912;-77
2022/08/07 00:06:16;;;;;;;;;;;27.00;99.90;;;;;;5082426;28;19961;-77
2022/08/07 00:08:42;;;;;;;;;;;27.10;99.90;;;;;;5078147;28;19913;-77
2022/08/07 00:11:07;;;;;;;;;;;27.00;99.90;;;;;;5081373;28;19977;-78
2022/08/07 00:13:33;;;;;;;;;;;27.00;99.90;;;;;;5075364;28;19959;-78
2022/08/07 00:15:59;;;;;;;;;;;26.90;99.90;;;;;;5077128;28;19916;-77
2022/08/07 00:18:26;;;;;;;;;;;26.90;99.90;;;;;;5077382;28;20357;-77
2022/08/07 00:20:53;;;;;;;;;;;26.90;99.90;;;;;;5079701;28;19916;-77
2022/08/07 00:23:19;;;;;;;;;;;26.90;99.90;;;;;;5103989;28;19963;-77
2022/08/07 00:25:44;;;;;;;;;;;26.90;99.90;;;;;;5080449;28;19942;-78
2022/08/07 00:28:10;;;;;;;;;;;26.90;99.90;;;;;;5082791;28;19965;-78
2022/08/07 00:30:35;;;;;;;;;;;26.90;99.90;;;;;;5075672;28;19993;-76
2022/08/07 00:33:01;;;;;;;;;;;26.90;99.90;;;;;;5061484;28;19976;-76
2022/08/07 00:35:27;;;;;;;;;;;26.80;99.90;;;;;;5078592;28;19920;-76
2022/08/07 00:37:53;;;;;;;;;;;26.80;99.90;;;;;;5081588;28;19924;-78
2022/08/07 00:40:19;;;;;;;;;;;26.70;99.90;;;;;;5077751;28;20016;-77
2022/08/07 00:42:45;;;;;;;;;;;26.70;99.90;;;;;;5074242;28;20347;-77
2022/08/07 00:45:11;;;;;;;;;;;26.80;99.90;;;;;;5077643;28;19920;-77
2022/08/07 00:47:36;;;;;;;;;;;26.70;99.90;;;;;;5079472;28;20014;-77
2022/08/07 00:50:03;;;;;;;;;;;26.70;99.90;;;;;;5076715;28;19943;-77
2022/08/07 00:52:28;;;;;;;;;;;26.70;99.90;;;;;;5077618;28;19923;-76
2022/08/07 00:54:54;;;;;;;;;;;26.60;99.90;;;;;;5077776;28;19912;-76
2022/08/07 00:57:21;;;;;;;;;;;26.60;99.90;;;;;;5075335;28;19986;-76
2022/08/07 00:59:47;;;;;;;;;;;26.70;99.90;;;;;;5078121;28;19948;-76
2022/08/07 01:02:13;;;;;;;;;;;26.60;99.90;;;;;;5079806;28;19967;-76
2022/08/07 01:04:38;;;;;;;;;;;26.60;99.90;;;;;;5076249;28;20408;-76
2022/08/07 01:07:04;;;;;;;;;;;26.50;99.90;;;;;;5076629;28;19923;-77
2022/08/07 01:09:30;;;;;;;;;;;26.50;99.90;;;;;;5074397;28;19970;-77
2022/08/07 01:11:56;;;;;;;;;;;26.50;99.90;;;;;;5081333;28;19913;-76
2022/08/07 01:14:23;;;;;;;;;;;26.40;99.90;;;;;;5062519;28;19912;-75
2022/08/07 01:16:49;;;;;;;;;;;26.40;99.90;;;;;;5078691;28;19930;-76
2022/08/07 01:19:15;;;;;;;;;;;26.40;99.90;;;;;;5074025;28;19912;-77
2022/08/07 01:21:41;;;;;;;;;;;26.40;99.90;;;;;;5077443;28;19998;-76
2022/08/07 01:24:08;;;;;;;;;;;26.40;99.90;;;;;;5077686;28;20373;-76
2022/08/07 01:26:33;;;;;;;;;;;26.40;99.90;;;;;;5061705;28;19947;-76
2022/08/07 01:28:59;;;;;;;;;;;26.40;99.90;;;;;;5073772;28;20338;-76
2022/08/07 01:31:30;;;;;;;;;;;26.30;99.90;;;;;;5077387;28;19912;-76
2022/08/07 01:33:57;;;;;;;;;;;26.40;99.90;;;;;;5078348;28;19916;-77
2022/08/07 01:36:23;;;;;;;;;;;26.30;99.90;;;;;;5079357;28;19919;-76
2022/08/07 01:38:49;;;;;;;;;;;26.20;99.90;;;;;;5082124;28;19920;-76
2022/08/07 01:41:15;;;;;;;;;;;26.30;99.90;;;;;;5078131;28;19912;-76
2022/08/07 01:43:41;;;;;;;;;;;26.40;99.90;;;;;;5077993;28;19959;-76
2022/08/07 01:46:06;;;;;;;;;;;26.40;99.90;;;;;;5078455;28;19916;-75
2022/08/07 01:48:32;;;;;;;;;;;26.30;99.90;;;;;;5059974;28;19923;-76
2022/08/07 01:50:59;;;;;;;;;;;26.30;99.90;;;;;;5077363;28;19917;-77
2022/08/07 01:53:25;;;;;;;;;;;26.30;99.90;;;;;;5080473;28;19917;-77
2022/08/07 01:55:55;;;;;;;;;;;26.30;99.90;;;;;;5073886;28;19924;-77
2022/08/07 01:58:21;;;;;;;;;;;26.30;99.90;;;;;;5060026;28;19912;-76
2022/08/07 02:00:51;;;;;;;;;;;26.20;99.90;;;;;;5075753;28;19916;-77
2022/08/07 02:03:19;;;;;;;;;;;26.20;99.90;;;;;;5097093;28;21471;-76
2022/08/07 02:05:49;;;;;;;;;;;26.20;99.90;;;;;;5082868;28;21656;-76
2022/08/07 02:08:22;;;;;;;;;;;26.30;99.90;;;;;;5082632;28;19981;-77
2022/08/07 02:10:48;;;;;;;;;;;26.20;99.90;;;;;;5080249;28;19962;-76
2022/08/07 02:13:15;;;;;;;;;;;26.40;99.90;;;;;;5081668;28;19912;-75
2022/08/07 02:15:42;;;;;;;;;;;26.50;99.90;;;;;;5080601;28;19913;-76
2022/08/07 02:18:11;;;;;;;;;;;26.50;99.90;;;;;;5083140;28;19919;-76
2022/08/07 02:20:37;;;;;;;;;;;26.30;99.90;;;;;;5079289;28;19996;-76
2022/08/07 02:23:04;;;;;;;;;;;26.30;99.90;;;;;;5082337;28;19916;-76
2022/08/07 02:25:32;;;;;;;;;;;26.30;99.90;;;;;;5082922;28;20756;-76
2022/08/07 02:27:58;;;;;;;;;;;26.20;99.90;;;;;;5065148;28;19913;-76
2022/08/07 02:30:24;;;;;;;;;;;26.10;99.90;;;;;;5079850;28;20396;-76
2022/08/07 02:32:51;;;;;;;;;;;26.20;99.90;;;;;;5067344;28;19999;-75
2022/08/07 02:35:18;;;;;;;;;;;26.00;99.90;;;;;;5085678;28;19912;-77
2022/08/07 02:37:44;;;;;;;;;;;25.80;99.90;;;;;;5079520;28;19917;-76
2022/08/07 02:40:10;;;;;;;;;;;25.80;99.90;;;;;;5083105;28;20438;-76
2022/08/07 02:42:36;;;;;;;;;;;25.80;99.90;;;;;;5065370;28;19975;-76
2022/08/07 02:45:03;;;;;;;;;;;25.70;99.90;;;;;;5080750;28;20373;-76
2022/08/07 02:47:29;;;;;;;;;;;25.70;99.90;;;;;;5082743;28;20421;-76
2022/08/07 02:49:54;;;;;;;;;;;25.50;99.90;;;;;;5080708;28;19916;-76
2022/08/07 02:52:24;;;;;;;;;;;25.40;99.90;;;;;;5086338;28;19951;-75
2022/08/07 02:54:50;;;;;;;;;;;25.40;99.90;;;;;;5081426;28;19974;-75
2022/08/07 02:57:18;;;;;;;;;;;25.20;99.90;;;;;;5078209;28;20059;-76
2022/08/07 02:59:47;;;;;;;;;;;25.10;99.90;;;;;;5082379;28;19957;-75
2022/08/07 03:02:14;;;;;;;;;;;25.10;99.90;;;;;;5082396;28;20038;-76
2022/08/07 03:04:41;;;;;;;;;;;25.00;99.90;;;;;;5087309;28;20244;-76
2022/08/07 03:07:07;;;;;;;;;;;25.10;99.90;;;;;;5098069;28;19911;-76
2022/08/07 03:09:34;;;;;;;;;;;25.10;99.90;;;;;;5085549;28;20014;-77
2022/08/07 03:12:00;;;;;;;;;;;25.10;99.90;;;;;;5080547;28;19923;-77
2022/08/07 03:14:26;;;;;;;;;;;25.10;99.90;;;;;;5086971;28;20336;-76
2022/08/07 03:16:52;;;;;;;;;;;25.10;99.90;;;;;;5085116;28;19917;-76
2022/08/07 03:19:18;;;;;;;;;;;25.20;99.90;;;;;;5083601;28;19942;-76
2022/08/07 03:21:43;;;;;;;;;;;25.10;99.90;;;;;;5077514;28;19916;-77
2022/08/07 03:24:09;;;;;;;;;;;25.20;99.90;;;;;;5082353;28;20242;-75
2022/08/07 03:26:37;;;;;;;;;;;25.20;99.90;;;;;;5096059;28;19939;-76
2022/08/07 03:29:04;;;;;;;;;;;25.20;99.90;;;;;;5083541;28;19927;-76
2022/08/07 03:31:30;;;;;;;;;;;25.10;99.90;;;;;;5065136;28;20038;-75
2022/08/07 03:33:58;;;;;;;;;;;25.10;99.90;;;;;;5072657;28;20504;-76
2022/08/07 03:36:24;;;;;;;;;;;25.20;99.90;;;;;;5084471;28;19988;-75
2022/08/07 03:38:51;;;;;;;;;;;25.30;99.90;;;;;;5084322;28;19935;-75
2022/08/07 03:41:17;;;;;;;;;;;25.30;99.90;;;;;;5083099;28;20435;-76
2022/08/07 03:43:43;;;;;;;;;;;25.30;99.90;;;;;;5087600;28;19912;-76
2022/08/07 03:46:10;;;;;;;;;;;25.40;99.90;;;;;;5085492;28;19977;-76
2022/08/07 03:48:36;;;;;;;;;;;25.30;99.90;;;;;;5095754;28;19968;-75
2022/08/07 03:51:02;;;;;;;;;;;25.30;99.90;;;;;;5086820;28;19924;-75
2022/08/07 03:53:28;;;;;;;;;;;25.20;99.90;;;;;;5081355;28;20017;-76
2022/08/07 03:55:54;;;;;;;;;;;25.20;99.90;;;;;;5083680;28;19943;-76
2022/08/07 03:58:20;;;;;;;;;;;25.20;99.90;;;;;;5066737;28;19927;-76
2022/08/07 04:00:48;;;;;;;;;;;25.30;99.90;;;;;;5082804;28;19919;-76
2022/08/07 04:03:15;;;;;;;;;;;25.30;99.90;;;;;;5080127;28;19999;-76
2022/08/07 04:05:40;;;;;;;;;;;25.20;99.90;;;;;;5080411;28;19943;-76
2022/08/07 04:08:08;;;;;;;;;;;25.10;99.90;;;;;;5082430;28;19913;-76
2022/08/07 04:10:34;;;;;;;;;;;25.20;99.90;;;;;;5086231;28;19927;-77
2022/08/07 04:12:59;;;;;;;;;;;25.30;99.90;;;;;;5079729;28;19912;-76
2022/08/07 04:15:25;;;;;;;;;;;25.10;99.90;;;;;;5096695;28;19930;-76
2022/08/07 04:17:51;;;;;;;;;;;25.10;99.90;;;;;;5099215;28;19920;-75
2022/08/07 04:20:18;;;;;;;;;;;25.10;99.90;;;;;;5104098;28;19912;-76
2022/08/07 04:22:44;;;;;;;;;;;25.00;99.90;;;;;;5098756;28;19916;-78
2022/08/07 04:25:10;;;;;;;;;;;24.90;99.90;;;;;;5097134;28;19936;-76
2022/08/07 04:27:35;;;;;;;;;;;24.90;99.90;;;;;;5076669;28;19984;-76
2022/08/07 04:30:01;;;;;;;;;;;25.00;99.90;;;;;;5095993;28;19916;-76
2022/08/07 04:32:27;;;;;;;;;;;25.00;99.90;;;;;;5094673;28;20456;-76
2022/08/07 04:34:53;;;;;;;;;;;25.00;99.90;;;;;;5088530;28;19922;-75
2022/08/07 04:37:19;;;;;;;;;;;25.20;99.90;;;;;;5083533;28;19967;-76
2022/08/07 04:39:45;;;;;;;;;;;25.20;99.90;;;;;;5089544;28;19908;-76
2022/08/07 04:42:11;;;;;;;;;;;25.20;99.90;;;;;;5094790;28;19990;-75
2022/08/07 04:44:37;;;;;;;;;;;25.30;99.90;;;;;;5082009;28;20512;-75
2022/08/07 04:47:08;;;;;;;;;;;25.30;99.90;;;;;;5085107;28;19912;-75
2022/08/07 04:49:43;;;;;;;;;;;25.40;99.90;;;;;;5094921;28;19927;-77
2022/08/07 04:52:08;;;;;;;;;;;25.40;99.90;;;;;;5082117;28;19916;-76
2022/08/07 04:54:43;;;;;;;;;;;25.40;99.90;;;;;;5084497;28;19912;-76
2022/08/07 04:57:09;;;;;;;;;;;25.40;99.90;;;;;;5080795;28;19923;-76
2022/08/07 04:59:53;;;;;;;;;;;25.40;99.90;;;;;;5084283;28;20260;-75
2022/08/07 05:02:34;;;;;;;;;;;25.50;99.90;;;;;;5059316;28;19922;-77
2022/08/07 05:04:59;;;;;;;;;;;25.50;99.90;;;;;;5082228;28;19992;-76
2022/08/07 05:07:31;;;;;;;;;;;25.40;99.90;;;;;;5080801;28;19963;-78
2022/08/07 05:10:16;;;;;;;;;;;25.30;99.90;;;;;;5083447;28;19920;-76
2022/08/07 05:12:59;;;;;;;;;;;25.30;99.90;;;;;;5081826;28;19921;-76
2022/08/07 05:15:26;;;;;;;;;;;25.30;99.90;;;;;;5084429;28;20019;-75
2022/08/07 05:17:57;;;;;;;;;;;25.30;99.90;;;;;;5081133;28;19961;-75
2022/08/07 05:20:29;;;;;;;;;;;25.30;99.90;;;;;;5076244;28;19920;-75
2022/08/07 05:22:58;;;;;;;;;;;25.50;99.90;;;;;;5095068;28;19917;-76
2022/08/07 05:25:25;;;;;;;;;;;25.40;99.90;;;;;;5087050;28;19999;-77
2022/08/07 05:27:51;;;;;;;;;;;25.40;99.90;;;;;;5083297;28;19967;-76
2022/08/07 05:30:17;;;;;;;;;;;25.40;99.90;;;;;;5086690;28;19916;-77
2022/08/07 05:32:46;;;;;;;;;;;25.40;99.90;;;;;;5079810;28;19965;-76
2022/08/07 05:35:12;;;;;;;;;;;25.50;99.90;;;;;;5087468;28;19912;-76
2022/08/07 05:37:39;;;;;;;;;;;25.40;99.90;;;;;;5077181;28;20056;-76
2022/08/07 05:40:05;;;;;;;;;;;25.50;99.90;;;;;;5081390;28;19920;-76
2022/08/07 05:42:30;;;;;;;;;;;25.60;99.90;;;;;;5096143;28;19972;-76
2022/08/07 05:44:56;;;;;;;;;;;25.70;99.90;;;;;;5101408;28;19913;-76
2022/08/07 05:47:22;;;;;;;;;;;25.60;99.90;;;;;;5106248;28;20019;-75
2022/08/07 05:49:48;;;;;;;;;;;25.60;99.90;;;;;;5099687;28;19912;-76
2022/08/07 05:52:14;;;;;;;;;;;25.60;99.90;;;;;;5109360;28;19932;-77
2022/08/07 05:54:40;;;;;;;;;;;25.80;99.90;;;;;;5104784;28;19935;-76
2022/08/07 05:57:06;;;;;;;;;;;25.80;99.90;;;;;;5105915;28;20039;-76
2022/08/07 05:59:36;;;;;;;;;;;25.90;99.90;;;;;;5085078;28;19909;-77
2022/08/07 06:02:04;;;;;;;;;;;26.00;99.90;;;;;;5086871;28;19923;-76
2022/08/07 06:04:30;;;;;;;;;;;25.90;99.90;;;;;;5085218;28;20436;-77
2022/08/07 06:06:58;;;;;;;;;;;25.90;99.90;;;;;;5078828;28;19912;-76
2022/08/07 06:09:23;;;;;;;;;;;26.00;99.90;;;;;;5075711;28;19916;-77
2022/08/07 06:11:49;;;;;;;;;;;25.90;99.90;;;;;;5081218;28;19923;-77
2022/08/07 06:14:15;;;;;;;;;;;26.00;99.90;;;;;;5079553;28;19912;-77
2022/08/07 06:16:43;;;;;;;;;;;26.10;99.90;;;;;;5080573;28;19920;-78
2022/08/07 06:19:08;;;;;;;;;;;26.10;99.90;;;;;;5076732;28;20001;-77
2022/08/07 06:21:35;;;;;;;;;;;26.30;99.90;;;;;;5063338;28;20362;-76
2022/08/07 06:24:00;;;;;;;;;;;26.40;99.90;;;;;;5082228;28;19912;-78
2022/08/07 06:26:26;;;;;;;;;;;26.40;99.90;;;;;;5078869;28;19953;-77
2022/08/07 06:28:54;;;;;;;;;;;26.40;99.90;;;;;;5079456;28;20308;-76
2022/08/07 06:31:20;;;;;;;;;;;26.50;99.90;;;;;;5076758;28;19920;-76
2022/08/07 06:33:46;;;;;;;;;;;26.60;99.90;;;;;;5080713;28;20405;-76
2022/08/07 06:36:12;;;;;;;;;;;26.50;99.90;;;;;;5080505;28;20370;-75
2022/08/07 06:38:38;;;;;;;;;;;26.50;99.90;;;;;;5080938;28;20043;-76
2022/08/07 06:41:05;;;;;;;;;;;26.50;99.90;;;;;;5080658;28;19928;-77
2022/08/07 06:43:34;;;;;;;;;;;26.50;99.90;;;;;;5080878;28;19974;-76
2022/08/07 06:46:03;;;;;;;;;;;26.60;99.90;;;;;;5078142;28;19912;-75
2022/08/07 06:48:29;;;;;;;;;;;26.50;99.90;;;;;;5096263;27;19919;-76
2022/08/07 06:50:57;;;;;;;;;;;26.50;99.90;;;;;;5087768;28;19916;-76
2022/08/07 06:53:23;;;;;;;;;;;26.40;99.90;;;;;;5082108;28;20281;-77
2022/08/07 06:55:49;;;;;;;;;;;26.40;99.90;;;;;;5078727;28;19912;-78
2022/08/07 06:58:15;;;;;;;;;;;26.50;99.90;;;;;;5090955;28;19919;-75
2022/08/07 07:00:43;;;;;;;;;;;26.60;99.90;;;;;;5092923;28;19916;-77
2022/08/07 07:03:09;;;;;;;;;;;26.40;99.90;;;;;;5079704;28;19912;-77
2022/08/07 07:05:35;;;;;;;;;;;26.50;99.90;;;;;;5095105;28;19908;-76
2022/08/07 07:08:01;;;;;;;;;;;26.60;99.90;;;;;;5067372;28;19993;-75
2022/08/07 07:10:30;;;;;;;;;;;26.80;99.90;;;;;;5088877;28;19970;-72
2022/08/07 07:13:16;;;;;;;;;;;26.80;99.90;;;;;;5083131;28;19916;-70
2022/08/07 07:15:43;;;;;;;;;;;26.80;99.90;;;;;;5089905;28;19912;-69
2022/08/07 07:18:13;;;;;;;;;;;27.00;99.90;;;;;;5103814;28;21582;-75
2022/08/07 07:20:42;;;;;;;;;;;27.00;99.90;;;;;;5096572;28;19912;-75
2022/08/07 07:23:08;;;;;;;;;;;27.10;99.90;;;;;;5081623;28;19915;-69
2022/08/07 07:25:36;;;;;;;;;;;27.10;99.90;;;;;;5061562;28;20262;-70
2022/08/07 07:28:11;;;;;;;;;;;27.20;99.90;;;;;;5090352;28;19916;-70
2022/08/07 07:30:39;;;;;;;;;;;27.00;99.90;;;;;;5093806;28;20305;-72
2022/08/07 07:33:05;;;;;;;;;;;26.90;99.90;;;;;;5097997;28;19918;-70
2022/08/07 07:35:32;;;;;;;;;;;27.00;99.90;;;;;;5096095;28;19912;-70
2022/08/07 07:37:59;;;;;;;;;;;27.10;99.90;;;;;;5096757;28;19912;-70
2022/08/07 07:40:25;;;;;;;;;;;27.30;99.90;;;;;;5090596;28;19966;-68
2022/08/07 07:42:53;;;;;;;;;;;27.40;99.90;;;;;;5088773;28;19912;-70
2022/08/07 07:45:20;;;;;;;;;;;27.50;99.90;;;;;;5106734;28;20353;-69
2022/08/07 07:47:46;;;;;;;;;;;27.50;99.90;;;;;;5108042;28;19994;-72
2022/08/07 07:50:14;;;;;;;;;;;27.40;99.90;;;;;;5092629;28;19982;-74
2022/08/07 07:52:40;;;;;;;;;;;27.30;99.90;;;;;;5094760;28;19920;-70
2022/08/07 07:55:06;;;;;;;;;;;27.30;99.90;;;;;;5087622;28;20408;-67
2022/08/07 07:57:32;;;;;;;;;;;27.30;99.90;;;;;;5092608;28;20389;-70
2022/08/07 07:59:59;;;;;;;;;;;27.40;99.90;;;;;;5106569;28;20006;-70
2022/08/07 08:02:26;;;;;;;;;;;27.40;99.90;;;;;;5081967;28;19966;-70
2022/08/07 08:04:53;;;;;;;;;;;27.50;99.90;;;;;;5093212;28;20364;-70
2022/08/07 08:07:19;;;;;;;;;;;27.50;99.90;;;;;;5099700;28;20404;-70
2022/08/07 08:09:46;;;;;;;;;;;27.30;99.90;;;;;;5093969;28;19920;-73
2022/08/07 08:12:12;;;;;;;;;;;27.30;99.90;;;;;;5087354;28;20297;-71
2022/08/07 08:14:38;;;;;;;;;;;27.30;99.90;;;;;;5089372;28;19912;-71
2022/08/07 08:17:06;;;;;;;;;;;27.30;99.90;;;;;;5088188;28;19941;-72
2022/08/07 08:19:32;;;;;;;;;;;27.40;99.90;;;;;;5112207;28;20376;-70
2022/08/07 08:27:32;;;;;;;;;;;27.40;99.90;;;;;;5090681;28;19920;-70
2022/08/07 08:30:04;;;;;;;;;;;27.40;99.90;;;;;;5096522;28;19961;-71
2022/08/07 08:32:31;;;;;;;;;;;27.40;99.90;;;;;;5093750;28;20364;-69
2022/08/07 08:34:57;;;;;;;;;;;27.50;99.90;;;;;;5071409;28;19912;-69
2022/08/07 08:37:24;;;;;;;;;;;27.60;99.90;;;;;;5087536;28;19912;-69
2022/08/07 08:39:51;;;;;;;;;;;27.70;99.90;;;;;;5090177;28;19924;-69
2022/08/07 08:42:22;;;;;;;;;;;27.80;99.90;;;;;;5097881;28;19991;-70
2022/08/07 08:44:53;;;;;;;;;;;27.80;99.90;;;;;;5087747;28;19916;-68
2022/08/07 08:47:24;;;;;;;;;;;27.60;99.90;;;;;;5071633;28;20446;-67
2022/08/07 08:50:09;;;;;;;;;;;27.80;99.90;;;;;;5076210;28;20085;-71
2022/08/07 08:52:40;;;;;;;;;;;27.70;99.90;;;;;;5078756;28;20726;-69
2022/08/07 08:55:06;;;;;;;;;;;27.50;99.90;;;;;;5077629;28;20426;-68
2022/08/07 08:57:36;;;;;;;;;;;27.40;99.90;;;;;;5092484;28;20010;-69
2022/08/07 09:00:08;;;;;;;;;;;27.30;99.90;;;;;;5093835;28;19912;-70
2022/08/07 09:02:40;;;;;;;;;;;27.40;99.90;;;;;;5099969;28;20025;-71
2022/08/07 09:05:25;;;;;;;;;;;27.60;99.90;;;;;;5087288;28;19916;-70
2022/08/07 09:08:09;;;;;;;;;;;27.50;99.90;;;;;;5100680;28;19954;-68
2022/08/07 09:10:40;;;;;;;;;;;27.70;99.90;;;;;;5101075;28;19928;-69
2022/08/07 09:13:08;;;;;;;;;;;27.80;99.90;;;;;;5110334;28;20004;-68
2022/08/07 09:15:43;;;;;;;;;;;27.80;99.90;;;;;;5099704;28;19912;-70
2022/08/07 09:18:15;;;;;;;;;;;27.70;99.90;;;;;;5090129;28;21147;-70
2022/08/07 09:20:41;;;;;;;;;;;27.80;99.90;;;;;;5098303;28;20392;-75
2022/08/07 09:23:09;;;;;;;;;;;28.00;99.90;;;;;;5089503;28;20052;-70
2022/08/07 09:25:57;;;;;;;;;;;27.70;99.90;;;;;;5091409;28;19912;-71
2022/08/07 09:28:52;;;;;;;;;;;27.60;99.90;;;;;;5094418;28;19947;-69
2022/08/07 09:31:17;;;;;;;;;;;27.60;99.90;;;;;;5083269;28;19938;-66
2022/08/07 09:33:49;;;;;;;;;;;27.60;99.90;;;;;;5094805;28;20365;-70
2022/08/07 09:36:23;;;;;;;;;;;27.60;99.90;;;;;;5095276;28;19919;-68
2022/08/07 09:39:04;;;;;;;;;;;27.60;99.90;;;;;;5097884;28;19931;-68
2022/08/07 09:41:36;;;;;;;;;;;27.80;99.90;;;;;;5096641;28;20014;-69
2022/08/07 09:44:20;;;;;;;;;;;27.90;99.90;;;;;;5090785;28;19971;-70
2022/08/07 09:47:04;;;;;;;;;;;27.70;99.90;;;;;;5082407;28;19961;-70
2022/08/07 09:49:35;;;;;;;;;;;27.50;99.90;;;;;;5089136;28;19924;-68
2022/08/07 09:52:10;;;;;;;;;;;27.30;99.90;;;;;;5088202;28;20404;-68
2022/08/07 09:54:54;;;;;;;;;;;27.40;99.90;;;;;;5064638;28;19912;-65
2022/08/07 09:57:38;;;;;;;;;;;27.60;99.90;;;;;;5087978;28;20013;-69
2022/08/07 10:00:11;;;;;;;;;;;27.80;99.90;;;;;;5093954;28;19956;-65
2022/08/07 10:02:49;;;;;;;;;;;27.60;99.90;;;;;;5095592;28;19912;-66
2022/08/07 10:05:20;;;;;;;;;;;27.60;99.90;;;;;;5081252;28;19918;-68
2022/08/07 10:08:08;;;;;;;;;;;27.60;99.90;;;;;;5091216;28;19936;-71
2022/08/07 10:10:33;;;;;;;;;;;27.70;99.90;;;;;;5090783;28;20001;-68
2022/08/07 10:13:18;;;;;;;;;;;28.00;99.90;;;;;;5073067;28;19959;-64
2022/08/07 10:16:06;;;;;;;;;;;28.00;99.90;;;;;;5102363;28;19911;-67
2022/08/07 10:18:50;;;;;;;;;;;28.20;99.90;;;;;;5072903;28;19912;-67
2022/08/07 10:21:31;;;;;;;;;;;28.30;99.90;;;;;;5105889;28;19913;-67
2022/08/07 10:24:12;;;;;;;;;;;28.40;99.90;;;;;;5093192;28;20381;-68
2022/08/07 10:26:44;;;;;;;;;;;28.60;99.90;;;;;;5084333;28;20373;-66
2022/08/07 10:29:28;;;;;;;;;;;28.40;99.90;;;;;;5092463;28;20285;-65
2022/08/07 10:32:05;;;;;;;;;;;28.50;99.90;;;;;;5096331;28;19920;-65
2022/08/07 10:34:53;;;;;;;;;;;28.20;99.90;;;;;;5111684;28;19958;-66
2022/08/07 10:37:19;;;;;;;;;;;28.30;99.90;;;;;;5102733;28;20427;-66
2022/08/07 10:39:44;;;;;;;;;;;28.60;99.90;;;;;;5088134;28;19912;-67
2022/08/07 10:42:21;;;;;;;;;;;28.70;99.90;;;;;;5111884;27;19919;-66
2022/08/07 10:45:00;;;;;;;;;;;28.60;99.90;;;;;;5099116;28;20171;-68
2022/08/07 10:47:48;;;;;;;;;;;28.70;99.90;;;;;;5082715;28;19912;-64
2022/08/07 10:50:20;;;;;;;;;;;28.70;99.90;;;;;;5077074;28;19916;-72
2022/08/07 10:53:03;;;;;;;;;;;28.60;99.90;;;;;;5094302;28;20015;-68
2022/08/07 10:55:35;;;;;;;;;;;28.70;99.90;;;;;;5088452;28;19927;-67
2022/08/07 10:58:01;;;;;;;;;;;28.80;99.90;;;;;;5091781;28;20241;-67
2022/08/07 11:00:30;;;;;;;;;;;29.00;99.90;;;;;;5097129;28;19912;-67
2022/08/07 11:03:04;;;;;;;;;;;29.10;99.90;;;;;;5084342;28;19912;-68
2022/08/07 11:05:30;;;;;;;;;;;29.10;99.90;;;;;;5094090;28;20333;-69
2022/08/07 11:08:08;;;;;;;;;;;29.20;99.90;;;;;;5093777;28;19999;-68
2022/08/07 11:10:34;;;;;;;;;;;29.30;99.90;;;;;;5094373;28;19915;-66
2022/08/07 11:13:21;;;;;;;;;;;29.30;99.90;;;;;;5093860;28;19922;-70
2022/08/07 11:15:49;;;;;;;;;;;29.10;99.90;;;;;;5107516;28;19947;-66
2022/08/07 11:18:17;;;;;;;;;;;29.00;99.90;;;;;;5082058;28;19912;-68
2022/08/07 11:21:11;;;;;;;;;;;29.10;99.90;;;;;;5096153;28;19916;-68
2022/08/07 11:23:55;;;;;;;;;;;29.10;99.90;;;;;;5063280;28;19920;-69
2022/08/07 11:26:23;;;;;;;;;;;29.10;99.90;;;;;;5091611;28;19977;-69
2022/08/07 11:28:57;;;;;;;;;;;29.10;99.90;;;;;;5086769;28;19938;-68
2022/08/07 11:31:26;;;;;;;;;;;29.20;99.90;;;;;;5099147;28;19938;-69
2022/08/07 11:34:02;;;;;;;;;;;29.00;99.90;;;;;;5098500;28;19912;-72
2022/08/07 11:36:42;;;;;;;;;;;29.00;99.90;;;;;;5099324;27;20008;-71
2022/08/07 11:39:14;;;;;;;;;;;29.10;99.90;;;;;;5080782;28;20015;-70
2022/08/07 11:41:43;;;;;;;;;;;29.20;99.90;;;;;;5078069;28;19927;-68
2022/08/07 11:44:41;;;;;;;;;;;28.90;99.90;;;;;;5078957;28;19912;-70
2022/08/07 11:47:25;;;;;;;;;;;29.00;99.90;;;;;;5029936;28;19912;-64
2022/08/07 11:50:11;;;;;;;;;;;29.10;99.90;;;;;;5079325;28;20003;-67
2022/08/07 11:52:56;;;;;;;;;;;29.10;99.90;;;;;;5074538;28;19924;-65
2022/08/07 11:55:40;;;;;;;;;;;29.10;99.90;;;;;;5095841;28;20039;-65
2022/08/07 11:58:24;;;;;;;;;;;28.90;99.90;;;;;;5091433;28;19919;-65
2022/08/07 12:00:57;;;;;;;;;;;28.80;99.90;;;;;;5097083;28;20014;-67
2022/08/07 12:03:29;;;;;;;;;;;29.00;99.90;;;;;;5087905;28;19913;-67
2022/08/07 12:06:03;;;;;;;;;;;29.20;99.90;;;;;;5088835;28;19912;-70
2022/08/07 12:08:31;;;;;;;;;;;29.40;99.90;;;;;;5082596;28;20277;-68
2022/08/07 12:10:58;;;;;;;;;;;29.50;99.90;;;;;;5088191;28;19920;-71
2022/08/07 12:13:23;;;;;;;;;;;29.60;99.90;;;;;;5066851;28;19912;-68
2022/08/07 12:15:51;;;;;;;;;;;29.70;99.90;;;;;;5081691;28;19919;-70
2022/08/07 12:18:26;;;;;;;;;;;29.90;99.90;;;;;;5100902;28;19912;-67
2022/08/07 12:21:13;;;;;;;;;;;29.80;99.90;;;;;;5093843;28;19912;-72
2022/08/07 12:23:59;;;;;;;;;;;29.90;99.90;;;;;;5095378;28;19915;-72
2022/08/07 12:26:30;;;;;;;;;;;30.20;99.90;;;;;;5049684;28;19922;-72
2022/08/07 12:29:14;;;;;;;;;;;30.30;99.90;;;;;;5089617;28;19914;-70
2022/08/07 12:31:40;;;;;;;;;;;30.40;99.90;;;;;;5081512;28;19920;-70
2022/08/07 12:34:06;;;;;;;;;;;30.50;99.90;;;;;;5072374;28;19994;-69
2022/08/07 12:36:32;;;;;;;;;;;30.10;99.90;;;;;;5089927;28;20324;-66
2022/08/07 12:38:58;;;;;;;;;;;29.80;99.90;;;;;;5110860;28;20365;-68
2022/08/07 12:41:25;;;;;;;;;;;29.80;99.90;;;;;;5079820;28;20358;-70
2022/08/07 12:43:53;;;;;;;;;;;29.80;99.90;;;;;;5102621;28;19916;-68
2022/08/07 12:46:28;;;;;;;;;;;29.90;99.90;;;;;;5084447;28;19921;-68
2022/08/07 12:49:01;;;;;;;;;;;30.00;99.90;;;;;;5094118;28;19912;-70
2022/08/07 12:51:30;;;;;;;;;;;30.00;99.90;;;;;;5087571;28;19923;-66
2022/08/07 12:54:12;;;;;;;;;;;29.90;99.90;;;;;;5087377;28;20303;-65
2022/08/07 12:56:40;;;;;;;;;;;29.90;99.90;;;;;;5101128;28;19972;-65
2022/08/07 12:59:07;;;;;;;;;;;29.60;99.90;;;;;;5093951;28;19920;-65
2022/08/07 13:01:38;;;;;;;;;;;29.80;99.90;;;;;;5084318;28;20097;-65
2022/08/07 13:04:19;;;;;;;;;;;30.20;99.90;;;;;;5087030;28;19920;-67
2022/08/07 13:06:45;;;;;;;;;;;30.10;99.90;;;;;;5090941;28;19931;-70
2022/08/07 13:09:17;;;;;;;;;;;30.30;99.90;;;;;;5097643;28;19965;-70
2022/08/07 13:12:09;;;;;;;;;;;30.40;99.90;;;;;;5099877;28;20269;-69
2022/08/07 13:14:57;;;;;;;;;;;30.50;99.90;;;;;;5058118;28;19911;-69
2022/08/07 13:17:23;;;;;;;;;;;30.50;99.90;;;;;;5092455;28;19919;-70
2022/08/07 13:19:59;;;;;;;;;;;30.40;99.90;;;;;;5091752;28;19920;-64
2022/08/07 13:22:30;;;;;;;;;;;30.30;99.90;;;;;;5097889;28;19919;-70
2022/08/07 13:24:59;;;;;;;;;;;30.30;99.90;;;;;;5102341;28;19920;-71
2022/08/07 13:27:34;;;;;;;;;;;30.30;99.90;;;;;;5116241;28;19912;-67
2022/08/07 13:30:11;;;;;;;;;;;30.50;99.90;;;;;;5100475;28;20007;-73
2022/08/07 13:32:49;;;;;;;;;;;30.60;99.90;;;;;;5068117;28;19912;-73
2022/08/07 13:35:27;;;;;;;;;;;30.70;99.90;;;;;;5084212;28;20025;-72
2022/08/07 13:38:02;;;;;;;;;;;30.60;99.90;;;;;;5097255;28;19912;-70
2022/08/07 13:40:34;;;;;;;;;;;30.60;99.90;;;;;;5098981;28;19974;-67
2022/08/07 13:43:08;;;;;;;;;;;30.60;99.90;;;;;;5073478;28;19965;-72
2022/08/07 13:45:34;;;;;;;;;;;30.60;99.90;;;;;;5087379;28;19955;-63
2022/08/07 13:48:03;;;;;;;;;;;30.50;99.90;;;;;;5090916;28;19920;-63
2022/08/07 13:50:29;;;;;;;;;;;30.40;99.90;;;;;;5088761;28;19916;-65
2022/08/07 13:52:55;;;;;;;;;;;30.50;99.90;;;;;;5086767;28;19957;-68
2022/08/07 13:55:21;;;;;;;;;;;30.30;99.90;;;;;;5086508;28;19921;-70
2022/08/07 14:01:08;;;;;;;;;;;30.50;99.90;;;;;;5085828;28;19919;-69
2022/08/07 14:03:38;;;;;;;;;;;30.70;99.90;;;;;;5092953;28;19911;-69
2022/08/07 14:06:04;;;;;;;;;;;30.60;99.90;;;;;;5088294;28;19920;-68
2022/08/07 14:08:31;;;;;;;;;;;30.50;99.90;;;;;;5095891;28;20361;-70
2022/08/07 14:10:57;;;;;;;;;;;30.40;99.90;;;;;;5075108;28;19924;-70
2022/08/07 14:13:26;;;;;;;;;;;30.60;99.90;;;;;;5097544;28;20100;-66
2022/08/07 14:15:54;;;;;;;;;;;30.50;99.90;;;;;;5091150;28;19935;-66
2022/08/07 14:18:20;;;;;;;;;;;30.50;99.90;;;;;;5103721;28;20261;-63
2022/08/07 14:20:49;;;;;;;;;;;30.50;99.90;;;;;;5092532;28;19920;-72
2022/08/07 14:23:25;;;;;;;;;;;30.50;99.90;;;;;;5072314;28;20011;-67
2022/08/07 14:25:59;;;;;;;;;;;30.70;99.90;;;;;;5088865;28;19908;-69
2022/08/07 14:28:26;;;;;;;;;;;30.60;99.90;;;;;;5100446;28;19939;-67
2022/08/07 14:30:52;;;;;;;;;;;30.60;99.90;;;;;;5088612;28;19923;-68
2022/08/07 14:33:18;;;;;;;;;;;30.60;99.90;;;;;;5091384;28;19908;-67
2022/08/07 14:35:44;;;;;;;;;;;30.80;99.90;;;;;;5092395;28;20340;-69
2022/08/07 14:38:10;;;;;;;;;;;30.70;99.90;;;;;;5092334;28;19912;-63
2022/08/07 14:40:36;;;;;;;;;;;30.40;99.90;;;;;;5090893;28;19912;-68